Time,TemperatureF,DewpointF,PressureIn,WindDirection,WindDirectionDegrees,WindSpeedMPH,WindSpeedGustMPH,Humidity,HourlyPrecipIn,Conditions,Clouds,dailyrainin,SoftwareType,DateUTC
2013-10-25 00:03:00,30.0,27.0,30.26,West,263,0.0,32.0,87,0.00,,,0.00,,2013-10-25 05:03:00,
2013-10-25 08:11:00,27.0,25.0,30.34,West,261,0.0,4.0,91,0.00,,,0.00,,2013-10-25 13:11:00,
2013-10-25 08:21:00,28.0,26.0,30.34,West,261,0.0,4.0,91,0.00,,,0.00,,2013-10-25 13:21:00,
2013-10-25 08:41:00,28.0,26.0,30.35,West,274,2.0,4.0,91,0.00,,,0.00,,2013-10-25 13:41:00,
2013-10-25 08:52:00,29.0,27.0,30.35,West,272,0.0,4.0,91,0.00,,,0.00,,2013-10-25 13:52:00,
2013-10-25 09:22:00,31.0,28.0,30.35,SW,220,0.0,7.0,89,0.00,,,0.00,,2013-10-25 14:22:00,
2013-10-25 09:42:00,33.0,30.0,30.35,WSW,254,0.0,7.0,89,0.00,,,0.00,,2013-10-25 14:42:00,
2013-10-25 09:52:00,34.0,31.0,30.35,WSW,248,0.0,7.0,89,0.00,,,0.00,,2013-10-25 14:52:00,
2013-10-25 10:11:00,36.0,33.0,30.36,WSW,246,1.0,7.0,89,0.00,,,0.00,,2013-10-25 15:11:00,
2013-10-25 10:21:00,37.0,33.0,30.36,SSW,211,5.0,7.0,84,0.00,,,0.00,,2013-10-25 15:21:00,
2013-10-25 10:53:00,40.0,36.0,30.36,South,181,5.0,8.0,84,0.00,,,0.00,,2013-10-25 15:53:00,
2013-10-25 11:43:00,46.0,36.0,30.37,SSW,203,2.0,10.0,69,0.00,,,0.00,,2013-10-25 16:43:00,
2013-10-25 11:53:00,46.0,36.0,30.37,SE,138,2.0,10.0,69,0.00,,,0.00,,2013-10-25 16:53:00,
2013-10-25 12:22:00,49.0,36.0,30.37,WNW,303,6.0,12.0,61,0.00,,,0.00,,2013-10-25 17:22:00,
2013-10-25 12:52:00,49.0,36.0,30.37,West,263,6.0,15.0,61,0.00,,,0.00,,2013-10-25 17:52:00,
2013-10-25 13:12:00,50.0,37.0,30.37,West,271,2.0,15.0,61,0.00,,,0.00,,2013-10-25 18:12:00,
2013-10-25 13:21:00,50.0,33.0,30.37,WSW,254,5.0,15.0,52,0.00,,,0.00,,2013-10-25 18:21:00,
2013-10-25 13:52:00,52.0,35.0,30.37,SW,229,6.0,16.0,52,0.00,,,0.00,,2013-10-25 18:52:00,
2013-10-25 14:11:00,52.0,35.0,30.37,WSW,242,8.0,17.0,52,0.00,,,0.00,,2013-10-25 19:11:00,
2013-10-25 14:22:00,53.0,34.0,30.37,WNW,302,5.0,17.0,48,0.00,,,0.00,,2013-10-25 19:22:00,
2013-10-25 14:52:00,53.0,34.0,30.36,SW,219,8.0,17.0,48,0.00,,,0.00,,2013-10-25 19:52:00,
2013-10-25 15:22:00,53.0,31.0,30.36,SSW,194,6.0,20.0,42,0.00,,,0.00,,2013-10-25 20:22:00,
2013-10-25 15:52:00,54.0,31.0,30.35,SSW,200,7.0,20.0,42,0.00,,,0.00,,2013-10-25 20:52:00,
2013-10-25 16:22:00,53.0,29.0,30.35,SW,214,9.0,20.0,39,0.00,,,0.00,,2013-10-25 21:22:00,
2013-10-25 16:54:00,53.0,29.0,30.34,SSW,202,7.0,20.0,39,0.00,,,0.00,,2013-10-25 21:54:00,
2013-10-25 17:23:00,53.0,28.0,30.33,SSW,198,5.0,20.0,38,0.00,,,0.00,,2013-10-25 22:23:00,
2013-10-25 17:53:00,51.0,26.0,30.32,SSE,168,5.0,20.0,38,0.00,,,0.00,,2013-10-25 22:53:00,
2013-10-25 18:22:00,49.0,29.0,30.32,SW,221,3.0,20.0,45,0.00,,,0.00,,2013-10-25 23:22:00,
2013-10-25 18:52:00,48.0,28.0,30.31,SSW,192,3.0,20.0,45,0.00,,,0.00,,2013-10-25 23:52:00,
2013-10-25 19:11:00,47.0,27.0,30.30,SSW,199,2.0,20.0,45,0.00,,,0.00,,2013-10-26 00:11:00,
2013-10-25 19:22:00,46.0,28.0,30.30,SSW,198,5.0,20.0,50,0.00,,,0.00,,2013-10-26 00:22:00,
2013-10-25 19:42:00,46.0,28.0,30.30,SSW,198,3.0,20.0,50,0.00,,,0.00,,2013-10-26 00:42:00,
2013-10-25 19:52:00,45.0,27.0,30.29,SSW,210,3.0,20.0,50,0.00,,,0.00,,2013-10-26 00:52:00,
2013-10-25 20:12:00,45.0,27.0,30.29,South,190,3.0,20.0,50,0.00,,,0.00,,2013-10-26 01:12:00,
2013-10-25 20:22:00,44.0,27.0,30.28,South,178,5.0,20.0,51,0.00,,,0.00,,2013-10-26 01:22:00,
2013-10-25 20:52:00,44.0,27.0,30.27,SSW,200,6.0,20.0,51,0.00,,,0.00,,2013-10-26 01:52:00,
2013-10-25 21:12:00,44.0,27.0,30.27,SSW,212,7.0,20.0,51,0.00,,,0.00,,2013-10-26 02:12:00,
2013-10-25 21:22:00,44.0,28.0,30.27,SSW,204,7.0,20.0,53,0.00,,,0.00,,2013-10-26 02:22:00,
2013-10-25 21:43:00,44.0,28.0,30.27,SSW,206,5.0,20.0,53,0.00,,,0.00,,2013-10-26 02:43:00,
2013-10-25 21:52:00,44.0,28.0,30.26,SW,230,5.0,20.0,53,0.00,,,0.00,,2013-10-26 02:52:00,
2013-10-25 22:12:00,44.0,28.0,30.26,SSW,201,5.0,20.0,53,0.00,,,0.00,,2013-10-26 03:12:00,
2013-10-25 22:22:00,43.0,28.0,30.25,SSW,195,1.0,20.0,56,0.00,,,0.00,,2013-10-26 03:22:00,
2013-10-25 22:54:00,44.0,29.0,30.24,SSW,203,6.0,20.0,56,0.00,,,0.00,,2013-10-26 03:54:00,
2013-10-25 23:24:00,44.0,30.0,30.24,South,185,6.0,20.0,57,0.00,,,0.00,,2013-10-26 04:24:00,
2013-10-25 23:54:00,45.0,31.0,30.24,SW,217,7.0,20.0,57,0.00,,,0.00,,2013-10-26 04:54:00,